createdAt,value
2018-09-09T00:00:42.796Z,10.23
2018-09-09T00:03:12.317Z,10.53
2018-09-09T00:05:41.202Z,10.03
2018-09-09T00:08:10.073Z,9.60
2018-09-09T00:10:38.993Z,11.30
2018-09-09T00:13:07.974Z,9.77
2018-09-09T00:15:36.760Z,9.70
2018-09-09T00:18:05.836Z,10.90
2018-09-09T00:20:34.470Z,9.67
2018-09-09T00:23:03.390Z,11.07
2018-09-09T00:25:32.626Z,9.93
2018-09-09T00:28:01.494Z,10.47
2018-09-09T00:30:30.243Z,10.30
2018-09-09T00:32:59.636Z,10.30
2018-09-09T00:35:28.659Z,10.10
2018-09-09T00:37:58.536Z,9.10
2018-09-09T00:40:27.388Z,9.10
2018-09-09T00:42:56.178Z,7.77
2018-09-09T00:45:25.068Z,8.00
2018-09-09T00:47:53.828Z,8.13
2018-09-09T00:50:27.770Z,8.40
2018-09-09T00:53:01.780Z,7.40
2018-09-09T00:55:30.633Z,7.37
2018-09-09T00:57:59.414Z,7.70
2018-09-09T01:00:34.192Z,6.50
2018-09-09T01:03:03.173Z,6.93
2018-09-09T01:05:31.999Z,7.10
2018-09-09T01:08:00.860Z,6.70
2018-09-09T01:10:29.841Z,6.80
2018-09-09T01:12:59.219Z,6.80
2018-09-09T01:15:28.016Z,7.37
2018-09-09T01:17:56.947Z,7.27
2018-09-09T01:20:25.926Z,6.47
2018-09-09T01:22:54.805Z,5.90
2018-09-09T01:25:24.212Z,6.90
2018-09-09T01:27:52.987Z,6.70
2018-09-09T01:30:21.694Z,6.13
2018-09-09T01:32:50.339Z,7.17
2018-09-09T01:35:19.721Z,5.93
2018-09-09T01:37:48.522Z,6.87
2018-09-09T01:40:17.416Z,6.00
2018-09-09T01:42:46.341Z,6.63
2018-09-09T01:45:15.231Z,6.57
2018-09-09T01:47:44.544Z,6.33
2018-09-09T01:50:13.419Z,5.90
2018-09-09T01:52:42.395Z,6.13
2018-09-09T01:55:11.548Z,6.40
2018-09-09T01:57:40.512Z,6.70
2018-09-09T02:00:09.876Z,6.73
2018-09-09T02:02:38.511Z,5.70
2018-09-09T02:05:07.968Z,6.90
2018-09-09T02:07:36.895Z,6.67
2018-09-09T02:10:05.779Z,6.10
2018-09-09T02:12:34.841Z,6.63
2018-09-09T02:15:04.070Z,7.83
2018-09-09T02:17:33.640Z,6.30
2018-09-09T02:20:02.772Z,6.30
2018-09-09T02:22:31.669Z,6.03
2018-09-09T02:25:00.555Z,6.20
2018-09-09T02:27:29.648Z,6.63
2018-09-09T02:29:58.382Z,6.00
2018-09-09T02:32:27.157Z,6.10
2018-09-09T02:34:55.995Z,6.73
2018-09-09T02:37:25.082Z,6.10
2018-09-09T02:39:53.918Z,6.20
2018-09-09T02:42:22.792Z,6.27
2018-09-09T02:44:51.669Z,6.30
2018-09-09T02:47:20.526Z,6.03
2018-09-09T02:49:49.454Z,6.03
2018-09-09T02:52:18.354Z,6.63
2018-09-09T02:54:47.095Z,7.07
2018-09-09T02:57:15.876Z,6.83
2018-09-09T02:59:44.708Z,6.43
2018-09-09T03:02:13.454Z,6.40
2018-09-09T03:04:42.282Z,5.93
2018-09-09T03:07:11.255Z,6.40
2018-09-09T03:09:40.182Z,5.70
2018-09-09T03:12:09.047Z,6.70
2018-09-09T03:14:38.159Z,6.40
2018-09-09T03:17:06.848Z,6.10
2018-09-09T03:19:35.751Z,6.30
2018-09-09T03:22:04.654Z,6.33
2018-09-09T03:24:33.567Z,5.63
2018-09-09T03:27:02.329Z,5.90
2018-09-09T03:29:31.313Z,5.80
2018-09-09T03:32:00.173Z,5.50
2018-09-09T03:34:28.980Z,5.40
2018-09-09T03:36:57.775Z,5.90
2018-09-09T03:39:26.654Z,5.77
2018-09-09T03:41:55.657Z,6.07
2018-09-09T03:44:24.442Z,6.00
2018-09-09T03:46:53.539Z,4.90
2018-09-09T03:49:22.438Z,5.60
2018-09-09T03:51:51.739Z,5.33
2018-09-09T03:54:20.832Z,5.37
2018-09-09T03:56:50.134Z,5.13
2018-09-09T03:59:18.882Z,5.80
2018-09-09T04:04:43.067Z,5.13
2018-09-09T04:07:14.920Z,4.93
2018-09-09T04:09:43.220Z,4.93
2018-09-09T04:12:11.550Z,5.00
2018-09-09T04:14:39.861Z,5.87
2018-09-09T04:17:08.181Z,5.23
2018-09-09T04:19:36.651Z,5.23
2018-09-09T04:22:04.960Z,5.23
2018-09-09T04:24:33.238Z,5.30
2018-09-09T04:27:01.601Z,4.57
2018-09-09T04:29:29.880Z,5.40
2018-09-09T04:31:58.464Z,5.00
2018-09-09T04:34:26.964Z,4.37
2018-09-09T04:36:55.285Z,4.83
2018-09-09T04:39:23.546Z,5.20
2018-09-09T04:41:52.088Z,4.90
2018-09-09T04:44:20.572Z,5.20
2018-09-09T04:46:50.160Z,5.40
2018-09-09T04:49:18.493Z,4.67
2018-09-09T04:51:46.998Z,4.30
2018-09-09T04:54:15.428Z,5.10
2018-09-09T04:56:43.957Z,5.10
2018-09-09T04:59:12.989Z,4.00
2018-09-09T05:01:41.741Z,5.07
2018-09-09T05:04:10.141Z,4.40
2018-09-09T05:06:38.497Z,5.23
2018-09-09T05:09:07.743Z,4.97
2018-09-09T05:11:36.048Z,4.23
2018-09-09T05:14:04.421Z,4.47
2018-09-09T05:16:32.989Z,4.60
2018-09-09T05:19:01.331Z,4.30
2018-09-09T05:21:29.691Z,4.67
2018-09-09T05:23:58.404Z,3.93
2018-09-09T05:26:26.716Z,3.97
2018-09-09T05:28:55.659Z,3.83
2018-09-09T05:31:23.932Z,4.07
2018-09-09T05:33:52.200Z,4.60
2018-09-09T05:36:20.487Z,4.33
2018-09-09T05:38:49.341Z,4.43
2018-09-09T05:41:17.652Z,5.10
2018-09-09T05:43:45.939Z,4.63
2018-09-09T05:46:14.241Z,4.90
2018-09-09T05:48:42.788Z,5.57
2018-09-09T05:51:11.596Z,5.73
2018-09-09T05:53:39.905Z,4.77
2018-09-09T05:56:08.413Z,4.93
2018-09-09T05:58:36.872Z,5.50
2018-09-09T06:01:05.173Z,5.10
2018-09-09T06:03:33.532Z,4.90
2018-09-09T06:06:01.829Z,4.93
2018-09-09T06:08:30.143Z,5.70
2018-09-09T06:10:58.441Z,6.20
2018-09-09T06:13:27.416Z,5.40
2018-09-09T06:15:55.728Z,5.30
2018-09-09T06:18:24.017Z,5.03
2018-09-09T06:20:52.378Z,4.90
2018-09-09T06:23:20.681Z,5.13
2018-09-09T06:25:48.997Z,4.80
2018-09-09T06:28:17.327Z,5.00
2018-09-09T06:30:45.893Z,4.80
2018-09-09T06:33:14.158Z,4.57
2018-09-09T06:35:42.452Z,5.17
2018-09-09T06:38:10.813Z,5.10
2018-09-09T06:40:39.122Z,5.43
2018-09-09T06:43:07.884Z,4.73
2018-09-09T06:45:36.191Z,4.53
2018-09-09T06:48:04.455Z,5.17
2018-09-09T06:50:32.884Z,5.50
2018-09-09T06:53:01.501Z,4.50
2018-09-09T06:55:30.201Z,4.40
2018-09-09T06:58:00.259Z,4.90
2018-09-09T07:00:30.579Z,4.57
2018-09-09T07:02:59.564Z,4.30
2018-09-09T07:05:28.044Z,5.43
2018-09-09T07:07:56.359Z,4.70
2018-09-09T07:10:28.200Z,4.20
2018-09-09T07:12:57.350Z,4.83
2018-09-09T07:15:28.248Z,4.10
2018-09-09T07:17:59.962Z,4.63
2018-09-09T07:20:28.938Z,4.60
2018-09-09T07:22:57.381Z,4.40
2018-09-09T07:25:26.029Z,5.50
2018-09-09T07:27:54.387Z,5.40
2018-09-09T07:30:29.639Z,4.97
2018-09-09T07:32:58.112Z,5.60
2018-09-09T07:35:26.753Z,5.23
2018-09-09T07:37:55.244Z,5.30
2018-09-09T07:40:23.772Z,5.43
2018-09-09T07:42:52.092Z,4.60
2018-09-09T07:45:20.875Z,5.40
2018-09-09T07:47:49.216Z,4.60
2018-09-09T07:50:17.551Z,4.80
2018-09-09T07:52:45.884Z,4.80
2018-09-09T07:55:14.336Z,4.00
2018-09-09T07:57:49.480Z,4.53
2018-09-09T08:00:17.893Z,4.20
2018-09-09T08:02:46.430Z,4.67
2018-09-09T08:05:14.742Z,4.33
2018-09-09T08:07:43.193Z,4.13
2018-09-09T08:10:11.525Z,4.00
2018-09-09T08:12:39.798Z,3.53
2018-09-09T08:15:08.174Z,3.60
2018-09-09T08:17:36.505Z,4.00
2018-09-09T08:20:04.917Z,3.40
2018-09-09T08:22:33.243Z,3.83
2018-09-09T08:25:01.702Z,4.40
2018-09-09T08:27:29.988Z,4.10
2018-09-09T08:29:58.597Z,4.40
2018-09-09T08:32:27.376Z,3.40
2018-09-09T08:34:55.768Z,4.10
2018-09-09T08:37:24.046Z,4.33
2018-09-09T08:39:52.451Z,3.37
2018-09-09T08:42:20.773Z,4.03
2018-09-09T08:44:49.061Z,3.20
2018-09-09T08:47:17.505Z,3.50
2018-09-09T08:49:46.003Z,3.67
2018-09-09T08:52:14.571Z,2.90
2018-09-09T08:54:46.091Z,3.03
2018-09-09T08:57:14.901Z,3.20
2018-09-09T08:59:43.662Z,3.27
2018-09-09T09:02:12.412Z,3.10
2018-09-09T09:04:40.807Z,3.20
2018-09-09T09:07:11.540Z,2.90
2018-09-09T09:09:40.054Z,3.30
2018-09-09T09:12:10.933Z,3.80
2018-09-09T09:14:40.756Z,3.17
2018-09-09T09:17:09.385Z,3.10
2018-09-09T09:19:37.999Z,3.60
2018-09-09T09:22:06.840Z,2.77
2018-09-09T09:24:35.324Z,2.57
2018-09-09T09:27:04.007Z,2.70
2018-09-09T09:29:37.789Z,3.10
2018-09-09T09:32:06.096Z,3.10
2018-09-09T09:34:34.654Z,2.50
2018-09-09T09:37:03.163Z,2.53
2018-09-09T09:39:31.456Z,3.07
2018-09-09T09:41:59.932Z,2.70
2018-09-09T09:44:28.884Z,2.00
2018-09-09T09:46:57.471Z,2.80
2018-09-09T09:49:25.737Z,2.37
2018-09-09T09:51:54.393Z,2.53
2018-09-09T09:54:22.681Z,2.00
2018-09-09T09:56:51.033Z,2.40
2018-09-09T09:59:19.317Z,2.50
2018-09-09T10:01:47.816Z,2.77
2018-09-09T10:04:16.814Z,2.40
2018-09-09T10:06:45.171Z,2.30
2018-09-09T10:09:13.464Z,2.37
2018-09-09T10:11:42.237Z,2.57
2018-09-09T10:14:10.520Z,2.10
2018-09-09T10:16:39.748Z,2.57
2018-09-09T10:19:08.341Z,2.10
2018-09-09T10:21:36.681Z,2.30
2018-09-09T10:24:12.190Z,2.83
2018-09-09T10:26:40.554Z,2.73
2018-09-09T10:29:08.945Z,3.30
2018-09-09T10:31:37.451Z,3.10
2018-09-09T10:34:06.616Z,2.30
2018-09-09T10:36:35.017Z,2.27
2018-09-09T10:39:04.987Z,2.10
2018-09-09T10:41:33.598Z,2.30
2018-09-09T10:44:01.896Z,2.07
2018-09-09T10:46:30.316Z,2.20
2018-09-09T10:48:58.657Z,2.77
2018-09-09T10:51:27.362Z,2.27
2018-09-09T10:53:55.842Z,2.70
2018-09-09T10:56:24.321Z,2.30
2018-09-09T10:58:52.819Z,7.90
2018-09-09T11:01:21.844Z,5.93
2018-09-09T11:03:50.245Z,1.87
2018-09-09T11:06:18.772Z,1.90
2018-09-09T11:08:47.245Z,2.20
2018-09-09T11:11:15.546Z,2.10
2018-09-09T11:13:44.024Z,2.30
2018-09-09T11:16:12.571Z,1.60
2018-09-09T11:18:40.951Z,2.03
2018-09-09T11:21:09.285Z,2.07
2018-09-09T11:23:39.182Z,1.70
2018-09-09T11:26:07.491Z,1.87
2018-09-09T11:28:36.164Z,4.73
2018-09-09T11:31:05.480Z,1.57
2018-09-09T11:33:33.896Z,1.40
2018-09-09T11:36:02.488Z,1.13
2018-09-09T11:38:30.861Z,1.37
2018-09-09T11:40:59.186Z,1.40
2018-09-09T11:43:27.697Z,1.70
2018-09-09T11:45:56.000Z,1.20
2018-09-09T11:48:24.589Z,1.30
2018-09-09T11:50:53.060Z,1.43
2018-09-09T11:53:21.609Z,1.20
2018-09-09T11:55:49.911Z,1.77
2018-09-09T11:58:18.561Z,1.10
2018-09-09T12:00:47.804Z,1.27
2018-09-09T12:03:16.740Z,1.20
2018-09-09T12:05:45.065Z,1.23
2018-09-09T12:08:13.372Z,1.60
2018-09-09T12:10:48.422Z,1.20
2018-09-09T12:13:17.718Z,1.60
2018-09-09T12:15:46.079Z,1.53
2018-09-09T12:18:14.423Z,1.00
2018-09-09T12:20:42.737Z,1.30
2018-09-09T12:23:11.193Z,1.20
2018-09-09T12:25:40.101Z,1.30
2018-09-09T12:28:08.529Z,1.43
2018-09-09T12:30:36.950Z,1.40
2018-09-09T12:33:05.258Z,1.47
2018-09-09T12:35:33.562Z,1.10
2018-09-09T12:38:01.841Z,1.20
2018-09-09T12:40:30.450Z,1.50
2018-09-09T12:43:03.966Z,1.40
2018-09-09T12:45:37.786Z,1.27
2018-09-09T12:48:11.377Z,1.13
2018-09-09T12:50:39.735Z,1.30
2018-09-09T12:53:08.016Z,1.00
2018-09-09T12:55:36.345Z,1.10
2018-09-09T12:58:04.805Z,1.33
2018-09-09T13:00:33.358Z,1.00
2018-09-09T13:03:01.724Z,2.20
2018-09-09T13:05:30.680Z,1.23
2018-09-09T13:07:58.975Z,1.40
2018-09-09T13:10:27.599Z,1.20
2018-09-09T13:13:01.304Z,1.10
2018-09-09T13:15:29.617Z,1.00
2018-09-09T13:17:58.270Z,1.13
2018-09-09T13:20:26.578Z,1.30
2018-09-09T13:22:54.918Z,1.30
2018-09-09T13:25:23.616Z,1.10
2018-09-09T13:27:51.931Z,1.43
2018-09-09T13:30:20.268Z,1.10
2018-09-09T13:32:48.718Z,1.20
2018-09-09T13:35:17.316Z,1.00
2018-09-09T13:37:45.913Z,1.20
2018-09-09T13:40:14.273Z,4.67
2018-09-09T13:42:42.803Z,1.57
2018-09-09T13:45:11.323Z,1.23
2018-09-09T13:47:39.610Z,1.10
2018-09-09T13:50:07.941Z,1.20
2018-09-09T13:52:36.442Z,1.30
2018-09-09T13:55:04.933Z,1.10
2018-09-09T13:57:33.874Z,1.30
2018-09-09T14:00:02.248Z,1.10
2018-09-09T14:02:30.922Z,1.47
2018-09-09T14:04:59.168Z,1.30
2018-09-09T14:07:27.537Z,1.30
2018-09-09T14:09:56.080Z,1.20
2018-09-09T14:12:25.430Z,1.50
2018-09-09T14:14:53.820Z,1.47
2018-09-09T14:17:22.234Z,1.10
2018-09-09T14:19:50.640Z,1.50
2018-09-09T14:22:19.011Z,1.30
2018-09-09T14:24:47.461Z,1.67
2018-09-09T14:27:16.028Z,2.30
2018-09-09T14:29:44.312Z,2.20
2018-09-09T14:32:12.657Z,1.57
2018-09-09T14:34:40.958Z,1.60
2018-09-09T14:37:09.315Z,2.00
2018-09-09T14:39:37.686Z,2.10
2018-09-09T14:42:06.501Z,1.47
2018-09-09T14:44:34.977Z,2.23
2018-09-09T14:47:03.295Z,2.00
2018-09-09T14:49:31.611Z,1.73
2018-09-09T14:52:00.106Z,1.57
2018-09-09T14:54:28.441Z,1.90
2018-09-09T14:56:57.180Z,2.30
2018-09-09T14:59:25.493Z,2.67
2018-09-09T15:01:54.193Z,1.83
2018-09-09T15:04:22.611Z,1.53
2018-09-09T15:06:50.943Z,1.80
2018-09-09T15:09:19.438Z,1.50
2018-09-09T15:11:48.057Z,1.57
2018-09-09T15:14:16.431Z,1.70
2018-09-09T15:16:44.809Z,1.77
2018-09-09T15:19:13.616Z,1.87
2018-09-09T15:21:42.166Z,2.03
2018-09-09T15:24:10.441Z,1.83
2018-09-09T15:26:39.262Z,1.83
2018-09-09T15:29:07.715Z,2.50
2018-09-09T15:31:37.295Z,2.00
2018-09-09T15:34:05.583Z,1.80
2018-09-09T15:36:34.019Z,2.20
2018-09-09T15:39:02.314Z,1.60
2018-09-09T15:41:30.801Z,2.10
2018-09-09T15:43:59.182Z,2.73
2018-09-09T15:46:28.254Z,2.10
2018-09-09T15:48:56.527Z,2.07
2018-09-09T15:51:24.914Z,2.37
2018-09-09T15:53:53.215Z,1.90
2018-09-09T15:56:21.546Z,1.70
2018-09-09T15:58:50.002Z,1.80
2018-09-09T16:01:18.322Z,2.17
2018-09-09T16:03:46.874Z,1.97
2018-09-09T16:06:16.128Z,2.03
2018-09-09T16:08:44.821Z,1.63
2018-09-09T16:11:13.190Z,1.73
2018-09-09T16:13:41.786Z,1.93
2018-09-09T16:16:10.125Z,2.03
2018-09-09T16:18:38.759Z,1.83
2018-09-09T16:21:07.087Z,1.60
2018-09-09T16:23:35.535Z,1.60
2018-09-09T16:26:04.018Z,2.30
2018-09-09T16:28:32.330Z,2.30
2018-09-09T16:31:00.672Z,1.90
2018-09-09T16:33:28.969Z,2.10
2018-09-09T16:35:57.300Z,1.60
2018-09-09T16:38:26.078Z,1.80
2018-09-09T16:40:54.651Z,2.07
2018-09-09T16:43:22.949Z,2.00
2018-09-09T16:45:51.296Z,2.00
2018-09-09T16:48:19.616Z,1.70
2018-09-09T16:50:48.115Z,1.73
2018-09-09T16:53:16.666Z,1.80
2018-09-09T16:55:45.191Z,2.03
2018-09-09T16:58:14.297Z,1.90
2018-09-09T17:00:42.624Z,1.87
2018-09-09T17:03:12.844Z,2.10
2018-09-09T17:05:41.174Z,2.80
2018-09-09T17:08:09.605Z,2.37
2018-09-09T17:10:38.622Z,2.70
2018-09-09T17:13:07.162Z,2.63
2018-09-09T17:15:35.817Z,2.63
2018-09-09T17:18:04.139Z,3.50
2018-09-09T17:20:32.645Z,3.20
2018-09-09T17:23:01.511Z,2.80
2018-09-09T17:25:37.123Z,3.37
2018-09-09T17:28:05.581Z,2.77
2018-09-09T17:30:33.894Z,3.57
2018-09-09T17:33:02.285Z,3.17
2018-09-09T17:35:30.924Z,3.17
2018-09-09T17:37:59.741Z,2.80
2018-09-09T17:40:28.887Z,2.87
2018-09-09T17:42:58.639Z,3.50
2018-09-09T17:45:28.176Z,3.13
2018-09-09T17:47:56.839Z,3.07
2018-09-09T17:50:25.210Z,2.83
2018-09-09T17:52:54.172Z,3.13
2018-09-09T17:55:22.944Z,3.00
2018-09-09T17:57:51.814Z,4.10
2018-09-09T18:00:20.265Z,3.57
2018-09-09T18:02:48.879Z,3.40
2018-09-09T18:05:23.005Z,3.70
2018-09-09T18:07:51.729Z,3.97
2018-09-09T18:10:20.264Z,3.30
2018-09-09T18:12:48.679Z,3.83
2018-09-09T18:15:18.548Z,3.00
2018-09-09T18:17:47.256Z,3.80
2018-09-09T18:20:17.069Z,3.27
2018-09-09T18:22:45.929Z,3.40
2018-09-09T18:25:16.435Z,3.23
2018-09-09T18:27:44.919Z,3.70
2018-09-09T18:30:13.576Z,3.60
2018-09-09T18:32:42.724Z,3.97
2018-09-09T18:35:18.840Z,4.07
2018-09-09T18:37:48.062Z,3.83
2018-09-09T18:40:17.376Z,4.03
2018-09-09T18:42:47.408Z,4.37
2018-09-09T18:45:16.671Z,4.00
2018-09-09T18:47:47.304Z,4.70
2018-09-09T18:50:16.531Z,4.67
2018-09-09T18:52:46.313Z,4.30
2018-09-09T18:55:15.725Z,4.80
2018-09-09T18:57:44.199Z,4.50
2018-09-09T19:00:12.892Z,4.43
2018-09-09T19:02:45.727Z,3.90
2018-09-09T19:05:15.806Z,4.60
2018-09-09T19:07:45.353Z,4.93
2018-09-09T19:10:14.409Z,4.90
2018-09-09T19:12:44.572Z,6.07
2018-09-09T19:15:12.978Z,6.57
2018-09-09T19:17:41.851Z,6.17
2018-09-09T19:20:10.436Z,6.63
2018-09-09T19:22:40.574Z,5.93
2018-09-09T19:25:09.373Z,7.07
2018-09-09T19:27:37.969Z,8.27
2018-09-09T19:30:07.098Z,6.70
2018-09-09T19:32:36.489Z,7.47
2018-09-09T19:35:07.391Z,9.07
2018-09-09T19:37:38.309Z,7.97
2018-09-09T19:40:08.304Z,7.43
2018-09-09T19:42:38.097Z,6.67
2018-09-09T19:45:08.201Z,6.63
2018-09-09T19:47:36.751Z,6.33
2018-09-09T19:50:06.292Z,7.13
2018-09-09T19:52:35.072Z,7.50
2018-09-09T19:55:04.302Z,7.70
2018-09-09T19:57:34.640Z,7.03
2018-09-09T20:00:04.228Z,9.30
2018-09-09T20:02:33.795Z,8.03
2018-09-09T20:05:03.498Z,7.27
2018-09-09T20:07:32.854Z,7.43
2018-09-09T20:10:02.214Z,7.07
2018-09-09T20:12:30.993Z,9.53
2018-09-09T20:14:59.890Z,9.60
2018-09-09T20:17:28.244Z,9.70
2018-09-09T20:19:56.668Z,9.40
2018-09-09T20:22:27.459Z,10.27
2018-09-09T20:24:56.408Z,11.33
2018-09-09T20:27:24.932Z,10.50
2018-09-09T20:29:54.418Z,10.20
2018-09-09T20:32:23.466Z,10.00
2018-09-09T20:34:52.989Z,9.00
2018-09-09T20:37:22.910Z,10.17
2018-09-09T20:39:51.248Z,9.70
2018-09-09T20:42:19.685Z,10.40
2018-09-09T20:44:49.197Z,9.83
2018-09-09T20:47:17.532Z,11.07
2018-09-09T20:49:46.340Z,12.13
2018-09-09T20:52:15.206Z,11.57
2018-09-09T20:54:45.769Z,11.20
2018-09-09T20:57:14.532Z,11.07
2018-09-09T20:59:43.647Z,11.00
2018-09-09T21:02:12.316Z,10.27
2018-09-09T21:04:41.049Z,11.43
2018-09-09T21:07:10.109Z,11.10
2018-09-09T21:09:39.075Z,10.53
2018-09-09T21:12:07.681Z,10.33
2018-09-09T21:14:36.276Z,10.27
2018-09-09T21:17:04.778Z,10.53
2018-09-09T21:19:33.226Z,11.10
2018-09-09T21:22:02.156Z,9.00
2018-09-09T21:24:30.573Z,10.13
2018-09-09T21:26:58.932Z,9.00
2018-09-09T21:29:28.280Z,9.23
2018-09-09T21:31:56.697Z,9.00
2018-09-09T21:34:29.168Z,8.37
2018-09-09T21:36:58.981Z,9.00
2018-09-09T21:39:28.282Z,8.27
2018-09-09T21:41:57.676Z,9.47
2018-09-09T21:44:27.104Z,8.33
2018-09-09T21:46:56.527Z,7.90
2018-09-09T21:49:25.074Z,8.03
2018-09-09T21:51:54.350Z,8.63
2018-09-09T21:54:23.272Z,9.33
2018-09-09T21:56:51.990Z,8.37
2018-09-09T21:59:20.658Z,8.27
2018-09-09T22:01:54.903Z,8.70
2018-09-09T22:04:26.982Z,8.17
2018-09-09T22:06:55.542Z,7.80
2018-09-09T22:09:23.916Z,8.33
2018-09-09T22:11:52.433Z,8.30
2018-09-09T22:14:21.407Z,9.20
2018-09-09T22:16:51.193Z,8.90
2018-09-09T22:19:19.495Z,8.00
2018-09-09T22:21:50.035Z,8.67
2018-09-09T22:24:20.856Z,8.50
2018-09-09T22:26:50.274Z,8.23
2018-09-09T22:29:19.383Z,9.00
2018-09-09T22:31:49.538Z,8.30
2018-09-09T22:34:20.236Z,9.10
2018-09-09T22:36:49.833Z,8.63
2018-09-09T22:39:18.108Z,8.60
2018-09-09T22:41:46.556Z,8.67
2018-09-09T22:44:14.807Z,8.97
2018-09-09T22:46:44.049Z,8.73
2018-09-09T22:49:12.341Z,8.97
2018-09-09T22:51:47.394Z,8.40
2018-09-09T22:54:15.845Z,8.00
2018-09-09T22:56:44.241Z,9.33
2018-09-09T22:59:13.040Z,8.57
2018-09-09T23:01:41.654Z,7.90
2018-09-09T23:04:10.699Z,8.93
2018-09-09T23:06:39.541Z,7.53
2018-09-09T23:09:09.501Z,8.97
2018-09-09T23:11:38.774Z,8.80
2018-09-09T23:14:07.361Z,8.10
2018-09-09T23:16:36.002Z,9.20
2018-09-09T23:19:04.447Z,9.00
2018-09-09T23:21:32.859Z,8.10
2018-09-09T23:24:01.137Z,8.10
2018-09-09T23:26:29.455Z,8.53
2018-09-09T23:28:58.192Z,8.03
2018-09-09T23:31:26.504Z,8.67
2018-09-09T23:33:55.045Z,8.27
2018-09-09T23:36:24.490Z,8.40
2018-09-09T23:38:53.821Z,7.77
2018-09-09T23:41:22.113Z,8.40
2018-09-09T23:43:50.506Z,8.57
2018-09-09T23:46:18.800Z,8.83
2018-09-09T23:48:47.083Z,7.73
2018-09-09T23:51:15.372Z,8.97
2018-09-09T23:53:43.825Z,7.37
2018-09-09T23:56:12.104Z,8.20
2018-09-09T23:58:40.401Z,8.00
